createdAt,value
2022-09-04T00:00:17.200Z,30.206
2022-09-04T00:05:20.233Z,30.206
2022-09-04T00:10:17.353Z,30.205
2022-09-04T00:15:17.274Z,30.206
2022-09-04T00:20:17.323Z,30.208
2022-09-04T00:25:17.280Z,30.208
2022-09-04T00:30:17.406Z,30.206
2022-09-04T00:35:17.285Z,30.208
2022-09-04T00:40:17.252Z,30.206
2022-09-04T00:45:17.591Z,30.209
2022-09-04T00:50:17.264Z,30.209
2022-09-04T00:55:17.238Z,30.210
2022-09-04T01:00:17.353Z,30.214
2022-09-04T01:05:19.860Z,30.210
2022-09-04T01:10:17.736Z,30.210
2022-09-04T01:15:17.365Z,30.212
2022-09-04T01:20:17.489Z,30.210
2022-09-04T01:25:15.376Z,30.208
2022-09-04T01:30:15.329Z,30.209
2022-09-04T01:35:15.439Z,30.210
2022-09-04T01:40:15.567Z,30.211
2022-09-04T01:45:15.459Z,30.211
2022-09-04T01:50:15.421Z,30.207
2022-09-04T01:55:15.430Z,30.211
2022-09-04T02:00:15.455Z,30.210
2022-09-04T02:05:15.511Z,30.210
2022-09-04T02:10:15.466Z,30.209
2022-09-04T02:15:15.618Z,30.210
2022-09-04T02:20:15.691Z,30.210
2022-09-04T02:25:15.474Z,30.208
2022-09-04T02:30:15.521Z,30.210
2022-09-04T02:35:15.598Z,30.211
2022-09-04T02:40:15.537Z,30.212
2022-09-04T02:45:15.737Z,30.214
2022-09-04T02:50:15.498Z,30.213
2022-09-04T02:55:15.549Z,30.212
2022-09-04T03:00:20.948Z,30.214
2022-09-04T03:05:15.599Z,30.213
2022-09-04T03:10:15.541Z,30.211
2022-09-04T03:15:15.635Z,30.213
2022-09-04T03:20:15.590Z,30.215
2022-09-04T03:25:15.654Z,30.214
2022-09-04T03:30:15.651Z,30.215
2022-09-04T03:35:15.651Z,30.214
2022-09-04T03:40:15.687Z,30.217
2022-09-04T03:45:15.650Z,30.214
2022-09-04T03:50:15.843Z,30.211
2022-09-04T03:55:15.695Z,30.210
2022-09-04T04:00:16.845Z,30.209
2022-09-04T04:05:16.825Z,30.209
2022-09-04T04:10:16.810Z,30.209
2022-09-04T04:15:16.749Z,30.204
2022-09-04T04:20:16.738Z,30.207
2022-09-04T04:25:16.879Z,30.204
2022-09-04T04:30:16.772Z,30.204
2022-09-04T04:35:16.816Z,30.201
2022-09-04T04:40:16.918Z,30.201
2022-09-04T04:45:16.767Z,30.198
2022-09-04T04:50:16.964Z,30.197
2022-09-04T04:55:16.902Z,30.197
2022-09-04T05:00:16.829Z,30.197
2022-09-04T05:05:16.875Z,30.193
2022-09-04T05:10:16.856Z,30.193
2022-09-04T05:15:16.885Z,30.189
2022-09-04T05:20:16.870Z,30.186
2022-09-04T05:25:17.000Z,30.183
2022-09-04T05:30:16.911Z,30.183
2022-09-04T05:35:16.948Z,30.181
2022-09-04T05:40:16.871Z,30.182
2022-09-04T05:45:17.059Z,30.179
2022-09-04T05:50:16.955Z,30.181
2022-09-04T05:55:16.849Z,30.178
2022-09-04T06:00:17.097Z,30.177
2022-09-04T06:05:17.046Z,30.175
2022-09-04T06:10:16.992Z,30.175
2022-09-04T06:15:17.136Z,30.173
2022-09-04T06:20:17.054Z,30.173
2022-09-04T06:25:16.976Z,30.175
2022-09-04T06:30:17.064Z,30.171
2022-09-04T06:35:17.049Z,30.169
2022-09-04T06:40:16.986Z,30.167
2022-09-04T06:45:17.041Z,30.173
2022-09-04T06:50:17.083Z,30.171
2022-09-04T06:55:17.064Z,30.170
2022-09-04T07:00:17.282Z,30.169
2022-09-04T07:05:17.081Z,30.169
2022-09-04T07:10:17.109Z,30.167
2022-09-04T07:15:17.123Z,30.168
2022-09-04T07:20:17.094Z,30.167
2022-09-04T07:25:17.103Z,30.166
2022-09-04T07:30:17.105Z,30.164
2022-09-04T07:35:17.287Z,30.165
2022-09-04T07:40:17.288Z,30.164
2022-09-04T07:45:17.252Z,30.166
2022-09-04T07:50:17.256Z,30.165
2022-09-04T07:55:17.245Z,30.161
2022-09-04T08:00:17.208Z,30.159
2022-09-04T08:05:17.284Z,30.160
2022-09-04T08:10:17.271Z,30.162
2022-09-04T08:15:17.216Z,30.159
2022-09-04T08:20:17.177Z,30.159
2022-09-04T08:25:17.257Z,30.159
2022-09-04T08:30:17.513Z,30.158
2022-09-04T08:35:17.526Z,30.161
2022-09-04T08:40:17.419Z,30.157
2022-09-04T08:45:17.463Z,30.157
2022-09-04T08:50:17.518Z,30.157
2022-09-04T08:55:17.397Z,30.158
2022-09-04T09:00:17.413Z,30.157
2022-09-04T09:05:17.357Z,30.159
2022-09-04T09:10:17.470Z,30.159
2022-09-04T09:15:17.442Z,30.157
2022-09-04T09:20:19.936Z,30.152
2022-09-04T09:25:15.646Z,30.154
2022-09-04T09:30:15.425Z,30.152
2022-09-04T09:35:15.438Z,30.152
2022-09-04T09:40:15.472Z,30.153
2022-09-04T09:45:15.566Z,30.152
2022-09-04T09:50:15.507Z,30.153
2022-09-04T09:55:15.429Z,30.156
2022-09-04T10:00:15.544Z,30.158
2022-09-04T10:05:15.529Z,30.155
2022-09-04T10:10:15.627Z,30.157
2022-09-04T10:15:15.546Z,30.157
2022-09-04T10:20:15.548Z,30.161
2022-09-04T10:25:15.564Z,30.160
2022-09-04T10:30:15.793Z,30.158
2022-09-04T10:35:15.567Z,30.161
2022-09-04T10:40:15.554Z,30.160
2022-09-04T10:45:15.654Z,30.161
2022-09-04T10:50:15.561Z,30.161
2022-09-04T10:55:15.628Z,30.161
2022-09-04T11:00:15.629Z,30.162
2022-09-04T11:05:15.681Z,30.163
2022-09-04T11:10:15.615Z,30.163
2022-09-04T11:15:15.547Z,30.164
2022-09-04T11:20:18.396Z,30.163
2022-09-04T11:25:15.620Z,30.165
2022-09-04T11:30:15.689Z,30.167
2022-09-04T11:35:15.677Z,30.166
2022-09-04T11:40:15.727Z,30.165
2022-09-04T11:45:15.690Z,30.165
2022-09-04T11:50:15.653Z,30.164
2022-09-04T11:55:15.667Z,30.162
2022-09-04T12:00:15.676Z,30.162
2022-09-04T12:05:15.684Z,30.163
2022-09-04T12:10:15.765Z,30.159
2022-09-04T12:15:15.822Z,30.161
2022-09-04T12:20:16.056Z,30.162
2022-09-04T12:25:15.729Z,30.163
2022-09-04T12:30:15.823Z,30.161
2022-09-04T12:35:15.785Z,30.162
2022-09-04T12:40:15.839Z,30.161
2022-09-04T12:45:15.769Z,30.159
2022-09-04T12:50:15.950Z,30.159
2022-09-04T12:55:15.910Z,30.160
2022-09-04T13:00:15.783Z,30.158
2022-09-04T13:05:15.819Z,30.162
2022-09-04T13:10:15.912Z,30.158
2022-09-04T13:15:16.027Z,30.160
2022-09-04T13:20:15.887Z,30.159
2022-09-04T13:25:15.951Z,30.158
2022-09-04T13:30:15.906Z,30.159
2022-09-04T13:35:19.503Z,30.160
2022-09-04T13:40:15.865Z,30.157
2022-09-04T13:45:15.889Z,30.157
2022-09-04T13:50:16.074Z,30.155
2022-09-04T13:55:15.916Z,30.155
2022-09-04T14:00:15.946Z,30.157
2022-09-04T14:05:15.937Z,30.157
2022-09-04T14:10:15.986Z,30.159
2022-09-04T14:15:16.018Z,30.158
2022-09-04T14:20:20.617Z,30.154
2022-09-04T14:25:16.023Z,30.156
2022-09-04T14:30:16.003Z,30.157
2022-09-04T14:35:16.184Z,30.154
2022-09-04T14:40:16.297Z,30.158
2022-09-04T14:45:16.121Z,30.155
2022-09-04T14:50:15.993Z,30.154
2022-09-04T14:55:16.082Z,30.151
2022-09-04T15:00:16.063Z,30.149
2022-09-04T15:05:16.002Z,30.149
2022-09-04T15:10:16.105Z,30.146
2022-09-04T15:15:16.145Z,30.141
2022-09-04T15:20:16.999Z,30.140
2022-09-04T15:25:16.090Z,30.137
2022-09-04T15:30:16.427Z,30.135
2022-09-04T15:35:16.237Z,30.134
2022-09-04T15:40:16.209Z,30.135
2022-09-04T15:45:16.239Z,30.133
2022-09-04T15:50:16.232Z,30.133
2022-09-04T15:55:16.202Z,30.133
2022-09-04T16:00:16.239Z,30.134
2022-09-04T16:05:18.567Z,30.132
2022-09-04T16:10:16.259Z,30.132
2022-09-04T16:15:16.201Z,30.131
2022-09-04T16:20:16.242Z,30.130
2022-09-04T16:25:16.257Z,30.129
2022-09-04T16:30:16.311Z,30.128
2022-09-04T16:35:16.365Z,30.128
2022-09-04T16:40:16.329Z,30.127
2022-09-04T16:45:16.304Z,30.125
2022-09-04T16:50:16.315Z,30.127
2022-09-04T16:55:16.310Z,30.126
2022-09-04T17:00:16.343Z,30.126
2022-09-04T17:05:16.614Z,30.123
2022-09-04T17:10:16.417Z,30.123
2022-09-04T17:15:16.543Z,30.123
2022-09-04T17:20:16.384Z,30.123
2022-09-04T17:28:57.865Z,30.123
2022-09-04T17:29:09.382Z,30.123
2022-09-04T17:29:14.174Z,30.123
2022-09-04T17:30:25.415Z,30.120
2022-09-04T17:40:37.202Z,30.121
2022-09-04T17:40:38.086Z,30.121
2022-09-04T17:40:47.771Z,30.117
2022-09-04T17:40:54.950Z,30.121
2022-09-04T17:45:16.469Z,30.119
2022-09-04T17:50:16.431Z,30.117
2022-09-04T17:55:16.409Z,30.115
2022-09-04T18:00:16.432Z,30.117
2022-09-04T18:05:16.419Z,30.114
2022-09-04T18:10:16.502Z,30.115
2022-09-04T18:15:33.764Z,30.113
2022-09-04T18:20:16.541Z,30.115
2022-09-04T18:25:17.812Z,30.114
2022-09-04T18:33:50.534Z,30.114
2022-09-04T18:37:05.941Z,30.114
2022-09-04T18:37:18.586Z,30.114
2022-09-04T18:37:18.794Z,30.110
2022-09-04T18:37:22.851Z,30.110
2022-09-04T18:37:44.478Z,30.110
2022-09-04T18:40:16.644Z,30.110
2022-09-04T18:50:31.761Z,30.112
2022-09-04T18:50:36.448Z,30.110
2022-09-04T18:50:36.797Z,30.112
2022-09-04T18:50:36.969Z,30.112
2022-09-04T18:55:16.510Z,30.110
2022-09-04T19:00:16.621Z,30.108
2022-09-04T19:05:16.547Z,30.108
2022-09-04T19:10:16.741Z,30.107
2022-09-04T19:15:16.737Z,30.108
2022-09-04T19:20:17.336Z,30.109
2022-09-04T19:25:16.838Z,30.107
2022-09-04T19:30:18.463Z,30.107
2022-09-04T19:35:16.663Z,30.103
2022-09-04T19:45:55.095Z,30.099
2022-09-04T19:46:08.362Z,30.099
2022-09-04T19:46:11.954Z,30.099
2022-09-04T19:46:17.787Z,30.100
2022-09-04T19:46:33.323Z,30.100
2022-09-04T19:53:18.546Z,30.098
2022-09-04T19:53:24.371Z,30.098
2022-09-04T19:53:24.470Z,30.098
2022-09-04T19:55:25.742Z,30.097
2022-09-04T20:00:42.537Z,30.095
2022-09-04T20:05:16.781Z,30.099
2022-09-04T20:10:16.808Z,30.098
2022-09-04T20:15:16.799Z,30.096
2022-09-04T20:20:16.839Z,30.099
2022-09-04T20:25:16.748Z,30.098
2022-09-04T20:30:16.940Z,30.098
2022-09-04T20:35:20.472Z,30.100
2022-09-04T20:40:16.811Z,30.100
2022-09-04T20:48:04.975Z,30.098
2022-09-04T20:50:20.021Z,30.098
2022-09-04T20:52:43.998Z,30.098
2022-09-04T20:52:49.484Z,30.100
2022-09-04T20:52:59.189Z,30.100
2022-09-04T20:53:05.731Z,30.100
2022-09-04T20:55:16.846Z,30.100
2022-09-04T21:03:17.247Z,30.098
2022-09-04T21:03:17.494Z,30.098
2022-09-04T21:03:17.938Z,30.098
2022-09-04T21:05:17.173Z,30.097
2022-09-04T21:10:16.929Z,30.096
2022-09-04T21:15:17.059Z,30.098
2022-09-04T21:20:16.970Z,30.098
2022-09-04T21:25:18.639Z,30.105
2022-09-04T21:30:16.933Z,30.101
2022-09-04T21:35:16.906Z,30.103
2022-09-04T21:40:45.312Z,30.102
2022-09-04T21:45:17.118Z,30.101
2022-09-04T21:50:16.912Z,30.100
2022-09-04T21:58:21.279Z,30.101
2022-09-04T22:02:28.188Z,30.101
2022-09-04T22:02:30.592Z,30.101
2022-09-04T22:02:35.549Z,30.103
2022-09-04T22:02:40.139Z,30.103
2022-09-04T22:02:52.808Z,30.103
2022-09-04T22:05:16.896Z,30.103
2022-09-04T22:13:31.926Z,30.100
2022-09-04T22:13:41.294Z,30.100
2022-09-04T22:13:42.340Z,30.100
2022-09-04T22:15:17.486Z,30.100
2022-09-04T22:20:17.054Z,30.095
2022-09-04T22:25:16.990Z,30.097
2022-09-04T22:30:17.217Z,30.097
2022-09-04T22:35:17.003Z,30.091
2022-09-04T22:40:17.449Z,30.090
2022-09-04T22:45:17.155Z,30.092
2022-09-04T22:50:17.092Z,30.093
2022-09-04T22:55:36.557Z,30.091
2022-09-04T23:00:17.094Z,30.089
2022-09-04T23:05:17.108Z,30.093
2022-09-04T23:13:52.745Z,30.094
2022-09-04T23:13:57.221Z,30.094
2022-09-04T23:13:59.884Z,30.094
2022-09-04T23:15:17.224Z,30.094
2022-09-04T23:26:34.038Z,30.094
2022-09-04T23:26:34.312Z,30.094
2022-09-04T23:26:35.787Z,30.094
2022-09-04T23:26:43.776Z,30.094
2022-09-04T23:26:58.541Z,30.094
2022-09-04T23:30:17.147Z,30.096
2022-09-04T23:35:17.300Z,30.100
2022-09-04T23:40:17.229Z,30.101
2022-09-04T23:45:17.134Z,30.102
2022-09-04T23:50:17.823Z,30.105
2022-09-04T23:55:17.226Z,30.106
